Aeroporto :
LOGIN :

Iscrizione | Disclaimer

   EN    FR    IT 

 










Sommario :    VFR   VFR Marginale   IFR   IFR Intensivo   IFR Molto Intensivo
Visibilità : 
Base nubi : 
>= 8 km
>= 3000ft
5 / 8 km
1000 / 3000 ft
1500m / 5 km
500 / 1000 ft
800 / 1500m
200 / 500 ft
< 800m
< 200 ft
Simboli :   Temporali  Nebbia  Neve Forte  Precipitazioni Forti  Vento > 20 kt
SIGMETs :   Varie  Temporali  Ghiacco  Turbolenza  Onda orograficha  Ceneri Vulcaniche






- Altitudine del aeroporto : 141 ft
- Codice IATA : SKS


EKSP - Srydstrup Vojens

ULTIMO METAR :
  • 221950Z 26024G38KT 9999 FEW030 SCT050 06/01 Q1005

METARs OBSOLETI :
  • 221920Z 25025G37KT 9999 -SHRA FEW020CB SCT035 BKN050 06/02 Q1005
  • 221850Z 26024G35KT 9999 SCT035 BKN050 06/02 Q1005
  • 221840Z 26025G38KT 230V310 9999 SCT035 BKN050 06/02 Q1005
  • 221821Z 26022KT 9999 SCT030 BKN100 06/02 Q1004
  • 221750Z 25023G35KT 9999 FEW020CB SCT030 BKN100 06/02 Q1004
  • 221745Z 26024G41KT 9999 FEW020CB SCT030 BKN100 05/02 Q1004
  • 221734Z 26024G47KT 4500 -SHRAGS SCT020CB BKN030 05/02 Q1004
  • 221720Z 26024G35KT 9999 SCT030 BKN120 06/02 Q1004

TAF TAF EKSP
Valido dal 22 a 18 ore il 23 a 18 ore UTC


221721Z 2218/2318 27018G32KT 9999 SCT020
TEMPO 2218/2224 27020G42KT 4000 SHRAGS SCT020CB
TEMPO 2300/2306 27018KT 4000 SHRAGS SCT020CB
TEMPO 2306/2318 27015G25KT 5000 SHRA SCT020CB



MetMap, La meteo Aeronautica in un colpo d'occhio ! - Copyright ORBIFLY Dicembre 2007 - Disclaimer

ORBIFLY MET'MAP TEAM :

Programmazione e sviluppo : Alexandra Zaïnal
Concezione : Baudouin d'Aumeries
Aiuto per la programmazione : Marc-Olivier Méhu
Supporto tecnico e logistico : Manuel Goepfert
Aiuto per la traduzione : Arnaldo La Scala

Contatto : metmap@orbifly.com




FONTI E CREDITI :

   NOAA